createdAt,value
2023-01-07T00:01:44.386Z,0.30
2023-01-07T00:04:47.391Z,0.10
2023-01-07T00:07:50.067Z,0.40
2023-01-07T00:10:53.135Z,0.20
2023-01-07T00:13:57.498Z,0.40
2023-01-07T00:17:02.988Z,0.50
2023-01-07T00:20:06.569Z,0.70
2023-01-07T00:23:09.167Z,0.60
2023-01-07T00:26:20.404Z,0.50
2023-01-07T00:32:45.897Z,0.30
2023-01-07T00:35:48.896Z,0.30
2023-01-07T00:38:58.276Z,0.30
2023-01-07T00:42:19.798Z,0.50
2023-01-07T00:45:23.460Z,0.30
2023-01-07T00:48:26.223Z,0.40
2023-01-07T00:51:29.137Z,0.40
2023-01-07T00:54:31.731Z,0.30
2023-01-07T00:57:34.295Z,0.30
2023-01-07T01:00:37.317Z,0.50
2023-01-07T01:03:40.527Z,0.60
2023-01-07T01:06:43.267Z,0.30
2023-01-07T01:09:46.062Z,0.30
2023-01-07T01:12:49.856Z,0.10
2023-01-07T01:15:52.687Z,0.50
2023-01-07T01:18:55.388Z,0.40
2023-01-07T01:21:57.969Z,0.30
2023-01-07T01:25:00.555Z,0.30
2023-01-07T01:28:03.056Z,0.20
2023-01-07T01:31:06.255Z,0.30
2023-01-07T01:34:08.931Z,0.30
2023-01-07T01:37:11.628Z,0.60
2023-01-07T01:40:14.566Z,0.40
2023-01-07T01:43:34.112Z,0.70
2023-01-07T01:46:39.646Z,0.30
2023-01-07T01:50:06.648Z,0.80
2023-01-07T01:53:20.092Z,0.20
2023-01-07T01:56:29.388Z,0.10
2023-01-07T01:59:35.799Z,0.30
2023-01-07T02:02:56.901Z,0.40
2023-01-07T02:06:00.133Z,0.30
2023-01-07T02:09:02.838Z,0.30
2023-01-07T02:12:28.023Z,0.30
2023-01-07T02:15:47.155Z,0.40
2023-01-07T02:19:15.286Z,0.80
2023-01-07T02:22:52.938Z,0.20
2023-01-07T02:26:23.549Z,0.30
2023-01-07T02:29:44.440Z,0.20
2023-01-07T02:33:23.965Z,0.40
2023-01-07T02:36:54.634Z,0.30
2023-01-07T02:40:10.891Z,0.50
2023-01-07T02:43:27.316Z,0.40
2023-01-07T02:46:42.552Z,0.20
2023-01-07T02:49:58.560Z,0.20
2023-01-07T02:53:01.454Z,0.50
2023-01-07T02:56:32.264Z,0.70
2023-01-07T02:59:40.679Z,0.50
2023-01-07T03:03:02.846Z,0.30
2023-01-07T03:06:19.132Z,0.50
2023-01-07T03:09:46.993Z,0.60
2023-01-07T03:12:52.231Z,0.70
2023-01-07T03:16:08.890Z,0.30
2023-01-07T03:19:18.269Z,0.30
2023-01-07T03:22:25.083Z,0.20
2023-01-07T03:25:32.000Z,0.20
2023-01-07T03:28:40.632Z,0.40
2023-01-07T03:32:12.545Z,0.60
2023-01-07T03:35:15.408Z,0.40
2023-01-07T03:38:20.835Z,0.40
2023-01-07T03:44:44.600Z,0.70
2023-01-07T03:47:49.897Z,0.60
2023-01-07T03:50:52.484Z,0.40
2023-01-07T03:53:55.125Z,0.40
2023-01-07T03:56:58.821Z,0.40
2023-01-07T04:00:04.332Z,0.40
2023-01-07T04:06:09.586Z,0.20
2023-01-07T04:09:15.099Z,0.40
2023-01-07T04:12:18.362Z,0.40
2023-01-07T04:15:21.644Z,0.30
2023-01-07T04:18:25.139Z,0.20
2023-01-07T04:21:34.151Z,0.30
2023-01-07T04:24:37.229Z,0.30
2023-01-07T04:27:39.989Z,0.20
2023-01-07T04:30:42.661Z,0.40
2023-01-07T04:33:45.209Z,0.40
2023-01-07T04:36:48.072Z,0.70
2023-01-07T04:39:50.635Z,0.30
2023-01-07T04:42:53.212Z,0.50
2023-01-07T04:45:55.814Z,0.30
2023-01-07T04:48:58.589Z,0.50
2023-01-07T04:52:01.305Z,0.50
2023-01-07T04:55:04.255Z,0.40
2023-01-07T04:58:06.840Z,0.30
2023-01-07T05:01:11.721Z,0.40
2023-01-07T05:04:14.436Z,0.50
2023-01-07T05:07:17.124Z,0.20
2023-01-07T05:10:19.744Z,1.10
2023-01-07T05:13:24.039Z,0.50
2023-01-07T05:16:26.817Z,0.50
2023-01-07T05:19:31.927Z,0.50
2023-01-07T05:22:35.014Z,0.30
2023-01-07T05:25:37.666Z,0.70
2023-01-07T05:28:40.303Z,0.50
2023-01-07T05:31:42.947Z,0.60
2023-01-07T05:34:45.579Z,0.70
2023-01-07T05:37:48.517Z,0.30
2023-01-07T05:40:56.456Z,0.80
2023-01-07T05:43:59.622Z,0.50
2023-01-07T05:47:03.475Z,0.40
2023-01-07T05:50:09.220Z,0.90
2023-01-07T05:53:11.847Z,0.70
2023-01-07T05:56:14.397Z,0.70
2023-01-07T05:59:17.461Z,1.10
2023-01-07T06:02:20.336Z,0.60
2023-01-07T06:05:23.861Z,0.50
2023-01-07T06:08:27.440Z,0.30
2023-01-07T06:11:30.304Z,0.50
2023-01-07T06:14:32.889Z,0.50
2023-01-07T06:17:35.969Z,0.70
2023-01-07T06:23:43.708Z,0.60
2023-01-07T06:26:46.271Z,0.40
2023-01-07T06:29:48.808Z,0.30
2023-01-07T06:32:51.565Z,0.70
2023-01-07T06:35:54.252Z,0.60
2023-01-07T06:38:56.831Z,0.20
2023-01-07T06:41:59.514Z,0.40
2023-01-07T06:45:02.138Z,0.30
2023-01-07T06:48:05.017Z,0.20
2023-01-07T06:51:07.771Z,0.40
2023-01-07T06:54:11.081Z,0.40
2023-01-07T06:57:14.065Z,0.30
2023-01-07T07:00:17.134Z,0.40
2023-01-07T07:03:20.243Z,0.50
2023-01-07T07:06:23.335Z,0.50
2023-01-07T07:09:27.225Z,0.80
2023-01-07T07:12:29.980Z,0.40
2023-01-07T07:15:32.639Z,0.80
2023-01-07T07:18:35.772Z,0.70
2023-01-07T07:21:38.358Z,0.50
2023-01-07T07:24:40.951Z,0.40
2023-01-07T07:27:47.337Z,0.50
2023-01-07T07:30:50.127Z,0.30
2023-01-07T07:33:52.687Z,0.20
2023-01-07T07:36:55.799Z,0.40
2023-01-07T07:39:58.336Z,0.70
2023-01-07T07:43:11.993Z,0.50
2023-01-07T07:46:15.811Z,0.90
2023-01-07T07:49:18.361Z,0.50
2023-01-07T07:52:20.973Z,0.60
2023-01-07T07:55:26.171Z,0.30
2023-01-07T07:58:29.524Z,0.30
2023-01-07T08:01:32.609Z,0.60
2023-01-07T08:04:35.395Z,0.50
2023-01-07T08:07:38.940Z,0.50
2023-01-07T08:10:42.191Z,0.50
2023-01-07T08:13:44.949Z,0.70
2023-01-07T08:16:49.737Z,0.60
2023-01-07T08:19:52.305Z,0.40
2023-01-07T08:22:54.916Z,0.50
2023-01-07T08:26:02.813Z,0.30
2023-01-07T08:29:05.401Z,0.20
2023-01-07T08:32:07.902Z,0.40
2023-01-07T08:35:10.562Z,0.30
2023-01-07T08:38:13.200Z,0.40
2023-01-07T08:41:15.952Z,0.50
2023-01-07T08:44:18.518Z,0.30
2023-01-07T08:47:21.119Z,0.40
2023-01-07T08:50:25.547Z,0.20
2023-01-07T08:53:28.865Z,0.80
2023-01-07T08:56:33.528Z,0.50
2023-01-07T08:59:38.653Z,0.60
2023-01-07T09:02:41.379Z,0.50
2023-01-07T09:05:46.986Z,0.50
2023-01-07T09:08:49.756Z,0.60
2023-01-07T09:11:52.611Z,0.60
2023-01-07T09:14:55.257Z,0.50
2023-01-07T09:18:00.715Z,0.50
2023-01-07T09:24:07.230Z,1.20
2023-01-07T09:27:09.811Z,0.70
2023-01-07T09:30:13.636Z,0.50
2023-01-07T09:33:16.548Z,0.50
2023-01-07T09:36:19.192Z,0.60
2023-01-07T09:39:21.873Z,0.50
2023-01-07T09:42:36.953Z,2.40
2023-01-07T09:45:45.427Z,2.70
2023-01-07T09:48:58.170Z,3.10
2023-01-07T09:52:17.722Z,2.90
2023-01-07T09:56:10.936Z,2.30
2023-01-07T09:59:10.659Z,2.40
2023-01-07T10:02:47.365Z,3.40
2023-01-07T10:06:12.434Z,2.30
2023-01-07T10:09:34.650Z,2.30
2023-01-07T10:13:13.052Z,2.70
2023-01-07T10:16:47.038Z,2.80
2023-01-07T10:19:59.051Z,4.50
2023-01-07T10:23:12.303Z,4.30
2023-01-07T10:26:39.808Z,2.10
2023-01-07T10:29:54.171Z,2.90
2023-01-07T10:33:11.187Z,2.20
2023-01-07T10:36:26.971Z,2.10
2023-01-07T10:39:57.657Z,4.20
2023-01-07T10:43:28.539Z,1.70
2023-01-07T10:46:55.740Z,1.80
2023-01-07T10:50:25.033Z,1.40
2023-01-07T10:53:54.026Z,2.70
2023-01-07T10:57:06.791Z,6.20
2023-01-07T11:00:20.720Z,2.50
2023-01-07T11:03:25.609Z,1.50
2023-01-07T11:06:59.842Z,1.80
2023-01-07T11:10:05.416Z,2.70
2023-01-07T11:13:19.233Z,1.40
2023-01-07T11:16:39.366Z,1.40
2023-01-07T11:19:51.657Z,2.70
2023-01-07T11:22:54.316Z,3.50
2023-01-07T11:26:06.188Z,3.00
2023-01-07T11:29:33.102Z,1.60
2023-01-07T11:32:40.158Z,3.90
2023-01-07T11:35:52.134Z,1.70
2023-01-07T11:39:11.390Z,1.10
2023-01-07T11:42:37.333Z,1.50
2023-01-07T11:46:19.149Z,1.70
2023-01-07T11:49:32.084Z,1.70
2023-01-07T11:52:35.219Z,2.10
2023-01-07T11:55:37.886Z,2.30
2023-01-07T11:58:47.546Z,3.10
2023-01-07T12:01:52.905Z,1.90
2023-01-07T12:08:24.167Z,1.90
2023-01-07T12:11:32.694Z,2.40
2023-01-07T12:14:38.792Z,2.30
2023-01-07T12:17:46.113Z,2.80
2023-01-07T12:21:23.171Z,4.20
2023-01-07T12:24:43.857Z,1.50
2023-01-07T12:28:02.671Z,4.00
2023-01-07T12:31:21.901Z,1.30
2023-01-07T12:34:31.437Z,2.50
2023-01-07T12:37:54.016Z,1.30
2023-01-07T12:41:11.704Z,1.50
2023-01-07T12:44:20.277Z,2.30
2023-01-07T12:47:35.391Z,1.00
2023-01-07T12:50:44.047Z,1.60
2023-01-07T12:54:04.165Z,1.70
2023-01-07T12:57:15.821Z,2.20
2023-01-07T13:00:26.652Z,1.50
2023-01-07T13:03:47.219Z,1.00
2023-01-07T13:07:30.334Z,0.50
2023-01-07T13:10:43.266Z,0.20
2023-01-07T13:13:54.347Z,0.30
2023-01-07T13:17:31.192Z,0.30
2023-01-07T13:20:53.419Z,0.40
2023-01-07T13:24:07.211Z,0.80
2023-01-07T13:27:28.319Z,0.60
2023-01-07T13:30:56.092Z,0.20
2023-01-07T13:34:10.975Z,0.70
2023-01-07T13:37:26.653Z,0.30
2023-01-07T13:40:50.153Z,0.20
2023-01-07T13:44:10.244Z,0.40
2023-01-07T13:47:18.095Z,0.60
2023-01-07T13:50:41.984Z,0.40
2023-01-07T13:53:47.003Z,0.50
2023-01-07T13:56:50.100Z,0.30
2023-01-07T13:59:55.834Z,0.30
2023-01-07T14:02:58.565Z,0.30
2023-01-07T14:06:23.751Z,0.30
2023-01-07T14:09:33.377Z,0.50
2023-01-07T14:12:58.390Z,0.40
2023-01-07T14:17:33.161Z,0.60
2023-01-07T14:19:55.456Z,0.50
2023-01-07T14:22:16.126Z,0.30
2023-01-07T14:24:43.921Z,0.50
2023-01-07T14:26:59.306Z,0.30
2023-01-07T14:29:34.725Z,0.30
2023-01-07T14:31:39.767Z,0.30
2023-01-07T14:33:50.522Z,0.30
2023-01-07T14:36:02.541Z,0.40
2023-01-07T14:38:26.893Z,0.40
2023-01-07T14:40:29.402Z,0.20
2023-01-07T14:42:42.944Z,0.40
2023-01-07T14:49:18.316Z,0.30
2023-01-07T14:56:17.664Z,0.60
